sensor_id;sensor_type;location;lat;lon;timestamp;temperature;humidity
17423;DHT22;8829;47.932;7.810;2022-12-29T00:01:37;12.90;99.90
17423;DHT22;8829;47.932;7.810;2022-12-29T00:04:06;12.80;99.90
17423;DHT22;8829;47.932;7.810;2022-12-29T00:06:33;12.80;99.90
17423;DHT22;8829;47.932;7.810;2022-12-29T00:08:59;12.80;99.90
17423;DHT22;8829;47.932;7.810;2022-12-29T00:11:27;12.80;99.90
17423;DHT22;8829;47.932;7.810;2022-12-29T00:13:54;12.80;99.90
17423;DHT22;8829;47.932;7.810;2022-12-29T00:16:41;12.70;99.90
17423;DHT22;8829;47.932;7.810;2022-12-29T00:19:10;12.70;99.90
17423;DHT22;8829;47.932;7.810;2022-12-29T00:21:58;12.80;99.90
17423;DHT22;8829;47.932;7.810;2022-12-29T00:24:43;12.80;99.90
17423;DHT22;8829;47.932;7.810;2022-12-29T00:27:28;12.80;99.90
17423;DHT22;8829;47.932;7.810;2022-12-29T00:30:14;12.80;99.90
17423;DHT22;8829;47.932;7.810;2022-12-29T00:32:59;12.80;99.90
17423;DHT22;8829;47.932;7.810;2022-12-29T00:35:46;12.80;99.90
17423;DHT22;8829;47.932;7.810;2022-12-29T00:38:14;12.80;99.90
17423;DHT22;8829;47.932;7.810;2022-12-29T00:40:58;12.80;99.90
17423;DHT22;8829;47.932;7.810;2022-12-29T00:43:42;12.80;99.90
17423;DHT22;8829;47.932;7.810;2022-12-29T00:46:26;12.90;99.90
17423;DHT22;8829;47.932;7.810;2022-12-29T00:48:53;12.90;99.90
17423;DHT22;8829;47.932;7.810;2022-12-29T00:51:39;12.90;99.90
17423;DHT22;8829;47.932;7.810;2022-12-29T00:54:05;12.90;99.90
17423;DHT22;8829;47.932;7.810;2022-12-29T00:56:32;12.90;99.90
17423;DHT22;8829;47.932;7.810;2022-12-29T00:59:00;12.90;99.90
17423;DHT22;8829;47.932;7.810;2022-12-29T01:01:27;12.90;99.90
17423;DHT22;8829;47.932;7.810;2022-12-29T01:03:53;12.80;99.90
17423;DHT22;8829;47.932;7.810;2022-12-29T01:06:20;12.80;99.90
17423;DHT22;8829;47.932;7.810;2022-12-29T01:08:48;12.90;99.90
17423;DHT22;8829;47.932;7.810;2022-12-29T01:11:35;12.90;99.90
17423;DHT22;8829;47.932;7.810;2022-12-29T01:14:01;12.80;99.90
17423;DHT22;8829;47.932;7.810;2022-12-29T01:16:28;12.80;99.90
17423;DHT22;8829;47.932;7.810;2022-12-29T01:18:54;12.80;99.90
17423;DHT22;8829;47.932;7.810;2022-12-29T01:21:21;12.80;99.90
17423;DHT22;8829;47.932;7.810;2022-12-29T01:23:51;12.80;99.90
17423;DHT22;8829;47.932;7.810;2022-12-29T01:26:18;12.80;99.90
17423;DHT22;8829;47.932;7.810;2022-12-29T01:28:45;12.70;99.90
17423;DHT22;8829;47.932;7.810;2022-12-29T01:31:14;12.70;99.90
17423;DHT22;8829;47.932;7.810;2022-12-29T01:33:42;12.70;99.90
17423;DHT22;8829;47.932;7.810;2022-12-29T01:36:12;12.60;99.90
17423;DHT22;8829;47.932;7.810;2022-12-29T01:38:39;12.50;99.90
17423;DHT22;8829;47.932;7.810;2022-12-29T01:41:09;12.60;99.90
17423;DHT22;8829;47.932;7.810;2022-12-29T01:43:41;12.50;99.90
17423;DHT22;8829;47.932;7.810;2022-12-29T01:46:16;12.50;99.90
17423;DHT22;8829;47.932;7.810;2022-12-29T01:48:46;12.50;99.90
17423;DHT22;8829;47.932;7.810;2022-12-29T01:51:14;12.40;99.90
17423;DHT22;8829;47.932;7.810;2022-12-29T01:53:42;12.30;99.90
17423;DHT22;8829;47.932;7.810;2022-12-29T01:56:12;12.20;99.90
17423;DHT22;8829;47.932;7.810;2022-12-29T01:58:42;12.10;99.90
17423;DHT22;8829;47.932;7.810;2022-12-29T02:01:10;12.00;99.90
17423;DHT22;8829;47.932;7.810;2022-12-29T02:03:37;12.00;99.90
17423;DHT22;8829;47.932;7.810;2022-12-29T02:06:08;11.90;99.90
17423;DHT22;8829;47.932;7.810;2022-12-29T02:08:38;11.90;99.90
17423;DHT22;8829;47.932;7.810;2022-12-29T02:11:05;11.80;99.90
17423;DHT22;8829;47.932;7.810;2022-12-29T02:13:33;11.90;99.90
17423;DHT22;8829;47.932;7.810;2022-12-29T02:16:10;11.90;99.90
17423;DHT22;8829;47.932;7.810;2022-12-29T02:18:45;11.90;99.90
17423;DHT22;8829;47.932;7.810;2022-12-29T02:27:24;11.90;99.90
17423;DHT22;8829;47.932;7.810;2022-12-29T02:30:06;11.80;99.90
17423;DHT22;8829;47.932;7.810;2022-12-29T02:32:42;11.80;99.90
17423;DHT22;8829;47.932;7.810;2022-12-29T02:35:16;11.80;99.90
17423;DHT22;8829;47.932;7.810;2022-12-29T02:37:58;11.80;99.90
17423;DHT22;8829;47.932;7.810;2022-12-29T02:40:30;11.80;99.90
17423;DHT22;8829;47.932;7.810;2022-12-29T02:43:03;11.80;99.90
17423;DHT22;8829;47.932;7.810;2022-12-29T02:45:35;11.80;99.90
17423;DHT22;8829;47.932;7.810;2022-12-29T02:48:10;11.80;99.90
17423;DHT22;8829;47.932;7.810;2022-12-29T02:50:42;11.80;99.90
17423;DHT22;8829;47.932;7.810;2022-12-29T02:53:13;11.80;99.90
17423;DHT22;8829;47.932;7.810;2022-12-29T02:55:48;11.90;99.90
17423;DHT22;8829;47.932;7.810;2022-12-29T02:58:17;11.90;99.90
17423;DHT22;8829;47.932;7.810;2022-12-29T03:00:53;11.90;99.90
17423;DHT22;8829;47.932;7.810;2022-12-29T03:03:32;11.90;99.90
17423;DHT22;8829;47.932;7.810;2022-12-29T03:06:14;11.90;99.90
17423;DHT22;8829;47.932;7.810;2022-12-29T03:08:49;11.90;99.90
17423;DHT22;8829;47.932;7.810;2022-12-29T03:11:22;11.90;99.90
17423;DHT22;8829;47.932;7.810;2022-12-29T03:14:16;11.90;99.90
17423;DHT22;8829;47.932;7.810;2022-12-29T03:17:07;11.90;99.90
17423;DHT22;8829;47.932;7.810;2022-12-29T03:19:39;11.90;99.90
17423;DHT22;8829;47.932;7.810;2022-12-29T03:22:09;11.90;99.90
17423;DHT22;8829;47.932;7.810;2022-12-29T03:25:00;11.90;99.90
17423;DHT22;8829;47.932;7.810;2022-12-29T03:27:31;11.90;99.90
17423;DHT22;8829;47.932;7.810;2022-12-29T03:30:01;11.90;99.90
17423;DHT22;8829;47.932;7.810;2022-12-29T03:32:32;11.90;99.90
17423;DHT22;8829;47.932;7.810;2022-12-29T03:35:03;11.90;99.90
17423;DHT22;8829;47.932;7.810;2022-12-29T03:37:33;11.80;99.90
17423;DHT22;8829;47.932;7.810;2022-12-29T03:40:03;11.80;99.90
17423;DHT22;8829;47.932;7.810;2022-12-29T03:42:32;11.60;99.90
17423;DHT22;8829;47.932;7.810;2022-12-29T03:45:00;11.60;99.90
17423;DHT22;8829;47.932;7.810;2022-12-29T03:47:27;11.60;99.90
17423;DHT22;8829;47.932;7.810;2022-12-29T03:49:54;11.60;99.90
17423;DHT22;8829;47.932;7.810;2022-12-29T03:52:22;11.60;99.90
17423;DHT22;8829;47.932;7.810;2022-12-29T03:54:48;11.60;99.90
17423;DHT22;8829;47.932;7.810;2022-12-29T03:57:15;11.60;99.90
17423;DHT22;8829;47.932;7.810;2022-12-29T03:59:42;11.60;99.90
17423;DHT22;8829;47.932;7.810;2022-12-29T04:02:09;11.70;99.90
17423;DHT22;8829;47.932;7.810;2022-12-29T04:04:35;11.70;99.90
17423;DHT22;8829;47.932;7.810;2022-12-29T04:07:02;11.70;99.90
17423;DHT22;8829;47.932;7.810;2022-12-29T04:09:30;11.70;99.90
17423;DHT22;8829;47.932;7.810;2022-12-29T04:11:57;11.80;99.90
17423;DHT22;8829;47.932;7.810;2022-12-29T04:14:24;11.80;99.90
17423;DHT22;8829;47.932;7.810;2022-12-29T04:16:51;11.70;99.90
17423;DHT22;8829;47.932;7.810;2022-12-29T04:19:17;11.70;99.90
17423;DHT22;8829;47.932;7.810;2022-12-29T04:21:44;11.80;99.90
17423;DHT22;8829;47.932;7.810;2022-12-29T04:24:11;11.80;99.90
17423;DHT22;8829;47.932;7.810;2022-12-29T04:26:40;11.90;99.90
17423;DHT22;8829;47.932;7.810;2022-12-29T04:29:06;11.90;99.90
17423;DHT22;8829;47.932;7.810;2022-12-29T04:31:33;11.80;99.90
17423;DHT22;8829;47.932;7.810;2022-12-29T04:34:00;11.90;99.90
17423;DHT22;8829;47.932;7.810;2022-12-29T04:36:26;11.80;99.90
17423;DHT22;8829;47.932;7.810;2022-12-29T04:38:53;11.90;99.90
17423;DHT22;8829;47.932;7.810;2022-12-29T04:41:20;11.90;99.90
17423;DHT22;8829;47.932;7.810;2022-12-29T04:43:48;11.90;99.90
17423;DHT22;8829;47.932;7.810;2022-12-29T04:46:14;11.90;99.90
17423;DHT22;8829;47.932;7.810;2022-12-29T04:48:41;11.90;99.90
17423;DHT22;8829;47.932;7.810;2022-12-29T04:51:08;11.90;99.90
17423;DHT22;8829;47.932;7.810;2022-12-29T04:53:34;12.00;99.90
17423;DHT22;8829;47.932;7.810;2022-12-29T04:56:01;12.10;99.90
17423;DHT22;8829;47.932;7.810;2022-12-29T04:58:28;12.10;99.90
17423;DHT22;8829;47.932;7.810;2022-12-29T05:00:56;12.20;99.90
17423;DHT22;8829;47.932;7.810;2022-12-29T05:03:23;12.20;99.90
17423;DHT22;8829;47.932;7.810;2022-12-29T05:05:53;12.30;99.90
17423;DHT22;8829;47.932;7.810;2022-12-29T05:08:20;12.40;99.90
17423;DHT22;8829;47.932;7.810;2022-12-29T05:10:46;12.40;99.90
17423;DHT22;8829;47.932;7.810;2022-12-29T05:13:13;12.50;99.90
17423;DHT22;8829;47.932;7.810;2022-12-29T05:15:40;12.40;99.90
17423;DHT22;8829;47.932;7.810;2022-12-29T05:18:08;12.50;99.90
17423;DHT22;8829;47.932;7.810;2022-12-29T05:20:34;12.50;99.90
17423;DHT22;8829;47.932;7.810;2022-12-29T05:23:01;12.60;99.90
17423;DHT22;8829;47.932;7.810;2022-12-29T05:25:28;12.60;99.90
17423;DHT22;8829;47.932;7.810;2022-12-29T05:27:55;12.70;99.90
17423;DHT22;8829;47.932;7.810;2022-12-29T05:30:21;12.70;99.90
17423;DHT22;8829;47.932;7.810;2022-12-29T05:32:48;12.70;99.90
17423;DHT22;8829;47.932;7.810;2022-12-29T05:35:17;12.70;99.90
17423;DHT22;8829;47.932;7.810;2022-12-29T05:37:43;12.70;99.90
17423;DHT22;8829;47.932;7.810;2022-12-29T05:40:11;12.70;99.90
17423;DHT22;8829;47.932;7.810;2022-12-29T05:42:37;12.70;99.90
17423;DHT22;8829;47.932;7.810;2022-12-29T05:45:05;12.70;99.90
17423;DHT22;8829;47.932;7.810;2022-12-29T05:47:32;12.70;99.90
17423;DHT22;8829;47.932;7.810;2022-12-29T05:50:00;12.80;99.90
17423;DHT22;8829;47.932;7.810;2022-12-29T05:52:28;12.80;99.90
17423;DHT22;8829;47.932;7.810;2022-12-29T05:54:54;12.80;99.90
17423;DHT22;8829;47.932;7.810;2022-12-29T05:57:21;12.90;99.90
17423;DHT22;8829;47.932;7.810;2022-12-29T05:59:48;12.90;99.90
17423;DHT22;8829;47.932;7.810;2022-12-29T06:02:14;12.90;99.90
17423;DHT22;8829;47.932;7.810;2022-12-29T06:04:41;12.90;99.90
17423;DHT22;8829;47.932;7.810;2022-12-29T06:07:08;12.90;99.90
17423;DHT22;8829;47.932;7.810;2022-12-29T06:09:36;13.00;99.90
17423;DHT22;8829;47.932;7.810;2022-12-29T06:12:03;13.00;99.90
17423;DHT22;8829;47.932;7.810;2022-12-29T06:14:29;12.90;99.90
17423;DHT22;8829;47.932;7.810;2022-12-29T06:16:56;12.90;99.90
17423;DHT22;8829;47.932;7.810;2022-12-29T06:19:23;12.90;99.90
17423;DHT22;8829;47.932;7.810;2022-12-29T06:21:49;12.80;99.90
17423;DHT22;8829;47.932;7.810;2022-12-29T06:24:18;12.80;99.90
17423;DHT22;8829;47.932;7.810;2022-12-29T06:26:46;12.80;99.90
17423;DHT22;8829;47.932;7.810;2022-12-29T06:29:12;12.70;99.90
17423;DHT22;8829;47.932;7.810;2022-12-29T06:31:42;12.80;99.90
17423;DHT22;8829;47.932;7.810;2022-12-29T06:34:10;12.70;99.90
17423;DHT22;8829;47.932;7.810;2022-12-29T06:36:37;12.70;99.90
17423;DHT22;8829;47.932;7.810;2022-12-29T06:39:04;12.70;99.90
17423;DHT22;8829;47.932;7.810;2022-12-29T06:41:31;12.70;99.90
17423;DHT22;8829;47.932;7.810;2022-12-29T06:43:59;12.70;99.90
17423;DHT22;8829;47.932;7.810;2022-12-29T06:46:26;12.60;99.90
17423;DHT22;8829;47.932;7.810;2022-12-29T06:48:52;12.60;99.90
17423;DHT22;8829;47.932;7.810;2022-12-29T06:51:19;12.60;99.90
17423;DHT22;8829;47.932;7.810;2022-12-29T06:53:46;12.60;99.90
17423;DHT22;8829;47.932;7.810;2022-12-29T06:56:12;12.70;99.90
17423;DHT22;8829;47.932;7.810;2022-12-29T06:58:39;12.80;99.90
17423;DHT22;8829;47.932;7.810;2022-12-29T07:01:07;12.90;99.90
17423;DHT22;8829;47.932;7.810;2022-12-29T07:03:34;12.90;99.90
17423;DHT22;8829;47.932;7.810;2022-12-29T07:06:00;12.90;99.90
17423;DHT22;8829;47.932;7.810;2022-12-29T07:08:27;13.00;99.90
17423;DHT22;8829;47.932;7.810;2022-12-29T07:10:54;13.00;99.90
17423;DHT22;8829;47.932;7.810;2022-12-29T07:13:21;13.00;99.90
17423;DHT22;8829;47.932;7.810;2022-12-29T07:15:48;13.10;99.90
17423;DHT22;8829;47.932;7.810;2022-12-29T07:18:16;13.10;99.90
17423;DHT22;8829;47.932;7.810;2022-12-29T07:20:43;13.10;99.90
17423;DHT22;8829;47.932;7.810;2022-12-29T07:23:10;13.10;99.90
17423;DHT22;8829;47.932;7.810;2022-12-29T07:25:37;13.10;99.90
17423;DHT22;8829;47.932;7.810;2022-12-29T07:28:06;13.20;99.90
17423;DHT22;8829;47.932;7.810;2022-12-29T07:30:33;13.20;99.90
17423;DHT22;8829;47.932;7.810;2022-12-29T07:33:00;13.20;99.90
17423;DHT22;8829;47.932;7.810;2022-12-29T07:35:28;13.20;99.90
17423;DHT22;8829;47.932;7.810;2022-12-29T07:37:54;13.20;99.90
17423;DHT22;8829;47.932;7.810;2022-12-29T07:40:21;13.20;99.90
17423;DHT22;8829;47.932;7.810;2022-12-29T07:42:47;13.20;99.90
17423;DHT22;8829;47.932;7.810;2022-12-29T07:45:14;13.20;99.90
17423;DHT22;8829;47.932;7.810;2022-12-29T07:47:41;13.20;99.90
17423;DHT22;8829;47.932;7.810;2022-12-29T07:50:08;13.10;99.90
17423;DHT22;8829;47.932;7.810;2022-12-29T07:52:36;13.10;99.90
17423;DHT22;8829;47.932;7.810;2022-12-29T07:55:03;13.10;99.90
17423;DHT22;8829;47.932;7.810;2022-12-29T07:57:30;13.10;99.90
17423;DHT22;8829;47.932;7.810;2022-12-29T07:59:57;13.10;99.90
17423;DHT22;8829;47.932;7.810;2022-12-29T08:02:23;13.10;99.90
17423;DHT22;8829;47.932;7.810;2022-12-29T08:04:51;13.10;99.90
17423;DHT22;8829;47.932;7.810;2022-12-29T08:07:18;13.10;99.90
17423;DHT22;8829;47.932;7.810;2022-12-29T08:09:46;13.10;99.90
17423;DHT22;8829;47.932;7.810;2022-12-29T08:12:13;13.10;99.90
17423;DHT22;8829;47.932;7.810;2022-12-29T08:14:39;13.20;99.90
17423;DHT22;8829;47.932;7.810;2022-12-29T08:17:06;13.10;99.90
17423;DHT22;8829;47.932;7.810;2022-12-29T08:19:33;13.10;99.90
17423;DHT22;8829;47.932;7.810;2022-12-29T08:21:59;13.10;99.90
17423;DHT22;8829;47.932;7.810;2022-12-29T08:24:27;13.10;99.90
17423;DHT22;8829;47.932;7.810;2022-12-29T08:26:55;13.10;99.90
17423;DHT22;8829;47.932;7.810;2022-12-29T08:29:22;13.10;99.90
17423;DHT22;8829;47.932;7.810;2022-12-29T08:31:48;13.00;99.90
17423;DHT22;8829;47.932;7.810;2022-12-29T08:34:15;12.90;99.90
17423;DHT22;8829;47.932;7.810;2022-12-29T08:36:42;12.80;99.90
17423;DHT22;8829;47.932;7.810;2022-12-29T08:39:09;12.80;99.90
17423;DHT22;8829;47.932;7.810;2022-12-29T08:41:35;12.80;99.90
17423;DHT22;8829;47.932;7.810;2022-12-29T08:44:03;12.80;99.90
17423;DHT22;8829;47.932;7.810;2022-12-29T08:46:30;12.70;99.90
17423;DHT22;8829;47.932;7.810;2022-12-29T08:48:57;12.70;99.90
17423;DHT22;8829;47.932;7.810;2022-12-29T08:51:24;12.70;99.90
17423;DHT22;8829;47.932;7.810;2022-12-29T08:53:50;12.80;99.90
17423;DHT22;8829;47.932;7.810;2022-12-29T08:56:17;12.80;99.90
17423;DHT22;8829;47.932;7.810;2022-12-29T08:58:44;12.90;99.90
17423;DHT22;8829;47.932;7.810;2022-12-29T09:01:12;12.90;99.90
17423;DHT22;8829;47.932;7.810;2022-12-29T09:03:38;12.90;99.90
17423;DHT22;8829;47.932;7.810;2022-12-29T09:06:05;13.00;99.90
17423;DHT22;8829;47.932;7.810;2022-12-29T09:08:32;12.90;99.90
17423;DHT22;8829;47.932;7.810;2022-12-29T09:11:06;12.90;99.90
17423;DHT22;8829;47.932;7.810;2022-12-29T09:13:33;12.90;99.90
17423;DHT22;8829;47.932;7.810;2022-12-29T09:16:00;12.80;99.90
17423;DHT22;8829;47.932;7.810;2022-12-29T09:18:28;12.80;99.90
17423;DHT22;8829;47.932;7.810;2022-12-29T09:20:56;12.80;99.90
17423;DHT22;8829;47.932;7.810;2022-12-29T09:23:24;12.80;99.90
17423;DHT22;8829;47.932;7.810;2022-12-29T09:25:51;12.80;99.90
17423;DHT22;8829;47.932;7.810;2022-12-29T09:28:18;12.70;99.90
17423;DHT22;8829;47.932;7.810;2022-12-29T09:30:44;12.70;99.90
17423;DHT22;8829;47.932;7.810;2022-12-29T09:33:11;12.60;99.90
17423;DHT22;8829;47.932;7.810;2022-12-29T09:35:42;12.50;99.90
17423;DHT22;8829;47.932;7.810;2022-12-29T09:38:09;12.40;99.90
17423;DHT22;8829;47.932;7.810;2022-12-29T09:40:37;12.20;99.90
17423;DHT22;8829;47.932;7.810;2022-12-29T09:46:18;12.00;99.90
17423;DHT22;8829;47.932;7.810;2022-12-29T09:48:54;11.90;99.90
17423;DHT22;8829;47.932;7.810;2022-12-29T09:51:24;11.90;99.90
17423;DHT22;8829;47.932;7.810;2022-12-29T09:53:55;11.90;99.90
17423;DHT22;8829;47.932;7.810;2022-12-29T09:56:25;11.90;99.90
17423;DHT22;8829;47.932;7.810;2022-12-29T09:58:55;11.80;99.90
17423;DHT22;8829;47.932;7.810;2022-12-29T10:01:29;11.90;99.90
17423;DHT22;8829;47.932;7.810;2022-12-29T10:03:58;11.90;99.90
17423;DHT22;8829;47.932;7.810;2022-12-29T10:06:34;11.90;99.90
17423;DHT22;8829;47.932;7.810;2022-12-29T10:09:08;11.80;99.90
17423;DHT22;8829;47.932;7.810;2022-12-29T10:11:55;11.90;99.90
17423;DHT22;8829;47.932;7.810;2022-12-29T10:14:34;11.90;99.90
17423;DHT22;8829;47.932;7.810;2022-12-29T10:17:21;12.00;99.90
17423;DHT22;8829;47.932;7.810;2022-12-29T10:19:57;12.00;99.90
17423;DHT22;8829;47.932;7.810;2022-12-29T10:22:40;12.00;99.90
17423;DHT22;8829;47.932;7.810;2022-12-29T10:25:16;12.00;99.90
17423;DHT22;8829;47.932;7.810;2022-12-29T10:27:47;12.00;99.90
17423;DHT22;8829;47.932;7.810;2022-12-29T10:30:15;12.00;99.90
17423;DHT22;8829;47.932;7.810;2022-12-29T10:32:46;12.00;99.90
17423;DHT22;8829;47.932;7.810;2022-12-29T10:35:17;12.00;99.90
17423;DHT22;8829;47.932;7.810;2022-12-29T10:37:50;12.00;99.90
17423;DHT22;8829;47.932;7.810;2022-12-29T10:40:23;12.00;99.90
17423;DHT22;8829;47.932;7.810;2022-12-29T10:42:53;12.00;99.90
17423;DHT22;8829;47.932;7.810;2022-12-29T10:45:22;12.00;99.90
17423;DHT22;8829;47.932;7.810;2022-12-29T10:47:53;12.00;99.90
17423;DHT22;8829;47.932;7.810;2022-12-29T10:50:23;12.00;99.90
17423;DHT22;8829;47.932;7.810;2022-12-29T10:52:52;11.90;99.90
17423;DHT22;8829;47.932;7.810;2022-12-29T10:55:22;11.90;99.90
17423;DHT22;8829;47.932;7.810;2022-12-29T10:57:53;11.90;99.90
17423;DHT22;8829;47.932;7.810;2022-12-29T11:00:23;12.00;99.90
17423;DHT22;8829;47.932;7.810;2022-12-29T11:03:11;12.10;99.90
17423;DHT22;8829;47.932;7.810;2022-12-29T11:05:43;12.20;99.90
17423;DHT22;8829;47.932;7.810;2022-12-29T11:08:16;12.30;99.90
17423;DHT22;8829;47.932;7.810;2022-12-29T11:10:45;12.30;99.90
17423;DHT22;8829;47.932;7.810;2022-12-29T11:13:14;12.30;99.90
17423;DHT22;8829;47.932;7.810;2022-12-29T11:15:42;12.40;99.90
17423;DHT22;8829;47.932;7.810;2022-12-29T11:18:21;12.40;99.90
17423;DHT22;8829;47.932;7.810;2022-12-29T11:20:48;12.30;99.90
17423;DHT22;8829;47.932;7.810;2022-12-29T11:23:26;12.30;99.90
17423;DHT22;8829;47.932;7.810;2022-12-29T11:26:07;12.30;99.90
17423;DHT22;8829;47.932;7.810;2022-12-29T11:28:34;12.40;99.90
17423;DHT22;8829;47.932;7.810;2022-12-29T11:31:02;12.40;99.90
17423;DHT22;8829;47.932;7.810;2022-12-29T11:33:29;12.40;99.90
17423;DHT22;8829;47.932;7.810;2022-12-29T11:35:58;12.50;99.90
17423;DHT22;8829;47.932;7.810;2022-12-29T11:38:33;12.50;99.90
17423;DHT22;8829;47.932;7.810;2022-12-29T11:41:01;12.50;99.90
17423;DHT22;8829;47.932;7.810;2022-12-29T11:43:31;12.50;99.90
17423;DHT22;8829;47.932;7.810;2022-12-29T11:46:00;12.50;99.90
17423;DHT22;8829;47.932;7.810;2022-12-29T11:48:31;12.60;99.90
17423;DHT22;8829;47.932;7.810;2022-12-29T11:50:59;12.80;99.90
17423;DHT22;8829;47.932;7.810;2022-12-29T11:53:31;12.80;99.90
17423;DHT22;8829;47.932;7.810;2022-12-29T11:56:01;12.80;99.90
17423;DHT22;8829;47.932;7.810;2022-12-29T11:58:29;12.80;99.90
17423;DHT22;8829;47.932;7.810;2022-12-29T12:01:00;12.90;99.90
17423;DHT22;8829;47.932;7.810;2022-12-29T12:03:30;12.90;99.90
17423;DHT22;8829;47.932;7.810;2022-12-29T12:06:01;12.80;99.90
17423;DHT22;8829;47.932;7.810;2022-12-29T12:08:34;12.80;99.90
17423;DHT22;8829;47.932;7.810;2022-12-29T12:11:08;12.80;99.90
17423;DHT22;8829;47.932;7.810;2022-12-29T12:13:40;12.70;99.90
17423;DHT22;8829;47.932;7.810;2022-12-29T12:16:12;12.70;99.90
17423;DHT22;8829;47.932;7.810;2022-12-29T12:18:42;12.60;99.90
17423;DHT22;8829;47.932;7.810;2022-12-29T12:21:18;12.60;99.90
17423;DHT22;8829;47.932;7.810;2022-12-29T12:24:05;12.50;99.90
17423;DHT22;8829;47.932;7.810;2022-12-29T12:26:41;12.60;99.90
17423;DHT22;8829;47.932;7.810;2022-12-29T12:29:13;12.50;99.90
17423;DHT22;8829;47.932;7.810;2022-12-29T12:31:46;12.60;99.90
17423;DHT22;8829;47.932;7.810;2022-12-29T12:34:19;12.60;99.90
17423;DHT22;8829;47.932;7.810;2022-12-29T12:39:49;12.70;99.90
17423;DHT22;8829;47.932;7.810;2022-12-29T12:42:32;12.70;99.90
17423;DHT22;8829;47.932;7.810;2022-12-29T12:45:22;12.80;99.90
17423;DHT22;8829;47.932;7.810;2022-12-29T12:48:02;12.80;99.90
17423;DHT22;8829;47.932;7.810;2022-12-29T12:50:49;12.80;99.90
17423;DHT22;8829;47.932;7.810;2022-12-29T12:53:29;12.90;99.90
17423;DHT22;8829;47.932;7.810;2022-12-29T12:56:22;13.00;99.90
17423;DHT22;8829;47.932;7.810;2022-12-29T12:58:56;13.00;99.90
17423;DHT22;8829;47.932;7.810;2022-12-29T13:01:37;12.90;99.90
17423;DHT22;8829;47.932;7.810;2022-12-29T13:04:31;13.00;99.90
17423;DHT22;8829;47.932;7.810;2022-12-29T13:07:11;12.90;99.90
17423;DHT22;8829;47.932;7.810;2022-12-29T13:09:48;12.90;99.90
17423;DHT22;8829;47.932;7.810;2022-12-29T13:12:28;12.80;99.90
17423;DHT22;8829;47.932;7.810;2022-12-29T13:15:05;12.90;99.90
17423;DHT22;8829;47.932;7.810;2022-12-29T13:17:40;12.90;99.90
17423;DHT22;8829;47.932;7.810;2022-12-29T13:20:19;13.00;99.90
17423;DHT22;8829;47.932;7.810;2022-12-29T13:22:50;13.00;99.90
17423;DHT22;8829;47.932;7.810;2022-12-29T13:25:27;12.90;99.90
17423;DHT22;8829;47.932;7.810;2022-12-29T13:28:02;12.90;99.90
17423;DHT22;8829;47.932;7.810;2022-12-29T13:30:36;12.80;99.90
17423;DHT22;8829;47.932;7.810;2022-12-29T13:33:11;12.80;99.90
17423;DHT22;8829;47.932;7.810;2022-12-29T13:35:52;12.70;99.90
17423;DHT22;8829;47.932;7.810;2022-12-29T13:38:24;12.70;99.90
17423;DHT22;8829;47.932;7.810;2022-12-29T13:40:55;12.70;99.90
17423;DHT22;8829;47.932;7.810;2022-12-29T13:43:25;12.50;99.90
17423;DHT22;8829;47.932;7.810;2022-12-29T13:45:58;12.50;99.90
17423;DHT22;8829;47.932;7.810;2022-12-29T13:48:34;12.40;99.90
17423;DHT22;8829;47.932;7.810;2022-12-29T13:51:03;12.40;99.90
17423;DHT22;8829;47.932;7.810;2022-12-29T13:53:37;12.40;99.90
17423;DHT22;8829;47.932;7.810;2022-12-29T13:56:12;12.40;99.90
17423;DHT22;8829;47.932;7.810;2022-12-29T13:58:45;12.40;99.90
17423;DHT22;8829;47.932;7.810;2022-12-29T14:01:18;12.40;99.90
17423;DHT22;8829;47.932;7.810;2022-12-29T14:03:48;12.50;99.90
17423;DHT22;8829;47.932;7.810;2022-12-29T14:06:20;12.40;99.90
17423;DHT22;8829;47.932;7.810;2022-12-29T14:08:48;12.30;99.90
17423;DHT22;8829;47.932;7.810;2022-12-29T14:11:17;12.30;99.90
17423;DHT22;8829;47.932;7.810;2022-12-29T14:13:48;12.30;99.90
17423;DHT22;8829;47.932;7.810;2022-12-29T14:16:38;12.30;99.90
17423;DHT22;8829;47.932;7.810;2022-12-29T14:19:12;12.30;99.90
17423;DHT22;8829;47.932;7.810;2022-12-29T14:21:41;12.30;99.90
17423;DHT22;8829;47.932;7.810;2022-12-29T14:24:39;12.30;99.90
17423;DHT22;8829;47.932;7.810;2022-12-29T14:30:46;12.30;99.90
17423;DHT22;8829;47.932;7.810;2022-12-29T14:33:14;12.30;99.90
17423;DHT22;8829;47.932;7.810;2022-12-29T14:35:43;12.30;99.90
17423;DHT22;8829;47.932;7.810;2022-12-29T14:38:17;12.30;99.90
17423;DHT22;8829;47.932;7.810;2022-12-29T14:40:44;12.30;99.90
17423;DHT22;8829;47.932;7.810;2022-12-29T14:43:12;12.30;99.90
17423;DHT22;8829;47.932;7.810;2022-12-29T14:45:42;12.30;99.90
17423;DHT22;8829;47.932;7.810;2022-12-29T14:48:27;12.30;99.90
17423;DHT22;8829;47.932;7.810;2022-12-29T14:50:56;12.30;99.90
17423;DHT22;8829;47.932;7.810;2022-12-29T14:53:44;12.30;99.90
17423;DHT22;8829;47.932;7.810;2022-12-29T14:56:11;12.30;99.90
17423;DHT22;8829;47.932;7.810;2022-12-29T14:58:45;12.30;99.90
17423;DHT22;8829;47.932;7.810;2022-12-29T15:01:36;12.30;99.90
17423;DHT22;8829;47.932;7.810;2022-12-29T15:04:13;12.20;99.90
17423;DHT22;8829;47.932;7.810;2022-12-29T15:06:42;12.20;99.90
17423;DHT22;8829;47.932;7.810;2022-12-29T15:09:17;12.20;99.90
17423;DHT22;8829;47.932;7.810;2022-12-29T15:11:49;12.10;99.90
17423;DHT22;8829;47.932;7.810;2022-12-29T15:14:35;12.10;99.90
17423;DHT22;8829;47.932;7.810;2022-12-29T15:17:21;12.10;99.90
17423;DHT22;8829;47.932;7.810;2022-12-29T15:19:49;12.10;99.90
17423;DHT22;8829;47.932;7.810;2022-12-29T15:22:15;12.10;99.90
17423;DHT22;8829;47.932;7.810;2022-12-29T15:24:43;12.00;99.90
17423;DHT22;8829;47.932;7.810;2022-12-29T15:27:13;11.90;99.90
17423;DHT22;8829;47.932;7.810;2022-12-29T15:29:41;11.90;99.90
17423;DHT22;8829;47.932;7.810;2022-12-29T15:32:21;11.90;99.90
17423;DHT22;8829;47.932;7.810;2022-12-29T15:34:52;11.70;99.90
17423;DHT22;8829;47.932;7.810;2022-12-29T15:37:22;11.70;99.90
17423;DHT22;8829;47.932;7.810;2022-12-29T15:39:49;11.70;99.90
17423;DHT22;8829;47.932;7.810;2022-12-29T15:42:35;11.70;99.90
17423;DHT22;8829;47.932;7.810;2022-12-29T15:45:10;11.70;99.90
17423;DHT22;8829;47.932;7.810;2022-12-29T15:47:40;11.60;99.90
17423;DHT22;8829;47.932;7.810;2022-12-29T15:50:14;11.50;99.90
17423;DHT22;8829;47.932;7.810;2022-12-29T15:52:42;11.50;99.90
17423;DHT22;8829;47.932;7.810;2022-12-29T15:55:19;11.40;99.90
17423;DHT22;8829;47.932;7.810;2022-12-29T15:57:46;11.30;99.90
17423;DHT22;8829;47.932;7.810;2022-12-29T16:00:22;11.30;99.90
17423;DHT22;8829;47.932;7.810;2022-12-29T16:02:52;11.20;99.90
17423;DHT22;8829;47.932;7.810;2022-12-29T16:05:19;11.20;99.90
17423;DHT22;8829;47.932;7.810;2022-12-29T16:07:52;11.20;99.90
17423;DHT22;8829;47.932;7.810;2022-12-29T16:10:25;11.20;99.90
17423;DHT22;8829;47.932;7.810;2022-12-29T16:12:52;11.20;99.90
17423;DHT22;8829;47.932;7.810;2022-12-29T16:15:19;11.20;99.90
17423;DHT22;8829;47.932;7.810;2022-12-29T16:17:48;11.20;99.90
17423;DHT22;8829;47.932;7.810;2022-12-29T16:20:20;11.20;99.90
17423;DHT22;8829;47.932;7.810;2022-12-29T16:22:50;11.20;99.90
17423;DHT22;8829;47.932;7.810;2022-12-29T16:25:21;11.20;99.90